createdAt,value
2023-01-22T00:01:25.978Z,0.90
2023-01-22T00:03:53.624Z,0.90
2023-01-22T00:06:21.878Z,0.80
2023-01-22T00:08:49.425Z,0.80
2023-01-22T00:11:16.945Z,0.80
2023-01-22T00:13:44.502Z,1.00
2023-01-22T00:16:15.259Z,1.00
2023-01-22T00:18:42.718Z,0.90
2023-01-22T00:21:10.313Z,0.90
2023-01-22T00:23:37.836Z,0.80
2023-01-22T00:26:08.559Z,0.80
2023-01-22T00:28:36.115Z,1.00
2023-01-22T00:31:03.805Z,1.10
2023-01-22T00:33:31.178Z,1.00
2023-01-22T00:35:58.746Z,1.00
2023-01-22T00:38:27.049Z,0.90
2023-01-22T00:40:54.576Z,0.90
2023-01-22T00:43:22.981Z,0.80
2023-01-22T00:45:50.505Z,0.80
2023-01-22T00:48:18.033Z,1.10
2023-01-22T00:50:48.762Z,1.10
2023-01-22T00:53:16.273Z,1.10
2023-01-22T00:55:50.758Z,0.90
2023-01-22T00:58:18.307Z,0.90
2023-01-22T01:00:45.884Z,0.80
2023-01-22T01:03:28.602Z,0.80
2023-01-22T01:06:01.671Z,0.80
2023-01-22T01:08:29.209Z,0.70
2023-01-22T01:10:59.291Z,0.70
2023-01-22T01:13:27.605Z,0.60
2023-01-22T01:16:03.968Z,0.60
2023-01-22T01:18:31.420Z,0.60
2023-01-22T01:20:58.973Z,0.60
2023-01-22T01:23:27.264Z,0.60
2023-01-22T01:25:54.830Z,0.60
2023-01-22T01:28:22.362Z,0.60
2023-01-22T01:30:49.959Z,0.60
2023-01-22T01:33:17.451Z,0.60
2023-01-22T01:35:44.994Z,0.60
2023-01-22T01:38:12.526Z,0.60
2023-01-22T01:40:42.788Z,0.90
2023-01-22T01:43:16.051Z,1.20
2023-01-22T01:45:43.579Z,1.20
2023-01-22T01:48:20.460Z,1.20
2023-01-22T01:50:48.027Z,1.10
2023-01-22T01:53:16.295Z,1.00
2023-01-22T01:55:43.846Z,1.00
2023-01-22T01:58:11.396Z,1.00
2023-01-22T02:00:38.997Z,1.00
2023-01-22T02:03:07.807Z,1.00
2023-01-22T02:05:35.261Z,1.00
2023-01-22T02:08:02.796Z,1.20
2023-01-22T02:10:30.347Z,1.10
2023-01-22T02:12:57.867Z,1.10
2023-01-22T02:15:26.170Z,1.00
2023-01-22T02:17:54.050Z,1.10
2023-01-22T02:20:21.594Z,1.00
2023-01-22T02:22:49.134Z,1.00
2023-01-22T02:25:17.467Z,1.20
2023-01-22T02:27:45.002Z,1.20
2023-01-22T02:30:12.585Z,1.20
2023-01-22T02:32:40.157Z,1.10
2023-01-22T02:35:07.727Z,1.10
2023-01-22T02:37:35.261Z,1.10
2023-01-22T02:40:02.822Z,1.00
2023-01-22T02:42:30.368Z,1.00
2023-01-22T02:44:57.897Z,1.00
2023-01-22T02:47:25.497Z,0.90
2023-01-22T02:49:53.006Z,0.90
2023-01-22T02:52:20.543Z,0.90
2023-01-22T02:54:48.102Z,0.90
2023-01-22T02:57:15.646Z,0.90
2023-01-22T02:59:43.170Z,0.90
2023-01-22T03:02:10.841Z,0.90
2023-01-22T03:04:38.340Z,1.10
2023-01-22T03:07:06.634Z,1.30
2023-01-22T03:09:34.954Z,1.50
2023-01-22T03:12:02.502Z,1.50
2023-01-22T03:14:48.223Z,1.40
2023-01-22T03:17:33.675Z,1.30
2023-01-22T03:20:19.859Z,1.20
2023-01-22T03:22:48.013Z,1.10
2023-01-22T03:25:15.573Z,1.10
2023-01-22T03:27:43.470Z,1.00
2023-01-22T03:30:11.246Z,1.00
2023-01-22T03:32:38.788Z,1.00
2023-01-22T03:35:06.344Z,1.00
2023-01-22T03:37:33.871Z,1.00
2023-01-22T03:40:01.417Z,1.00
2023-01-22T03:42:28.953Z,1.00
2023-01-22T03:44:56.472Z,1.00
2023-01-22T03:47:24.013Z,1.00
2023-01-22T03:49:51.559Z,1.00
2023-01-22T03:52:19.861Z,1.10
2023-01-22T03:54:47.394Z,1.00
2023-01-22T03:57:15.752Z,1.10
2023-01-22T03:59:43.277Z,1.10
2023-01-22T04:02:10.828Z,1.10
2023-01-22T04:04:39.312Z,1.10
2023-01-22T04:07:06.847Z,1.10
2023-01-22T04:09:34.392Z,1.10
2023-01-22T04:12:02.753Z,1.10
2023-01-22T04:14:30.281Z,1.10
2023-01-22T04:16:57.991Z,1.20
2023-01-22T04:19:25.530Z,1.20
2023-01-22T04:21:53.061Z,1.20
2023-01-22T04:24:20.579Z,1.40
2023-01-22T04:26:48.124Z,1.70
2023-01-22T04:29:16.430Z,1.60
2023-01-22T04:31:43.977Z,1.60
2023-01-22T04:34:12.279Z,1.50
2023-01-22T04:36:39.812Z,1.50
2023-01-22T04:39:07.340Z,1.40
2023-01-22T04:41:35.668Z,1.40
2023-01-22T04:44:03.207Z,1.40
2023-01-22T04:46:30.738Z,1.40
2023-01-22T04:48:58.298Z,1.30
2023-01-22T04:51:26.703Z,1.50
2023-01-22T04:53:54.149Z,1.50
2023-01-22T04:56:22.480Z,1.50
2023-01-22T04:58:50.011Z,1.50
2023-01-22T05:01:17.589Z,1.50
2023-01-22T05:03:45.930Z,1.40
2023-01-22T05:06:13.457Z,1.40
2023-01-22T05:08:41.644Z,1.30
2023-01-22T05:11:09.104Z,1.30
2023-01-22T05:13:37.424Z,1.30
2023-01-22T05:16:05.022Z,1.30
2023-01-22T05:18:32.499Z,1.50
2023-01-22T05:21:00.805Z,1.50
2023-01-22T05:23:28.350Z,1.40
2023-01-22T05:25:56.804Z,1.40
2023-01-22T05:28:24.337Z,1.40
2023-01-22T05:30:51.960Z,1.40
2023-01-22T05:33:19.440Z,1.30
2023-01-22T05:35:46.975Z,1.30
2023-01-22T05:38:14.492Z,1.30
2023-01-22T05:40:42.827Z,1.30
2023-01-22T05:43:10.364Z,1.30
2023-01-22T05:45:37.904Z,1.20
2023-01-22T05:48:06.284Z,1.20
2023-01-22T05:50:33.835Z,1.20
2023-01-22T05:53:02.128Z,1.20
2023-01-22T05:55:30.275Z,1.20
2023-01-22T05:57:58.567Z,1.20
2023-01-22T06:00:26.117Z,1.20
2023-01-22T06:02:59.904Z,1.20
2023-01-22T06:05:27.459Z,1.20
2023-01-22T06:07:55.064Z,1.20
2023-01-22T06:10:22.572Z,1.40
2023-01-22T06:12:50.092Z,1.40
2023-01-22T06:15:17.623Z,1.30
2023-01-22T06:17:45.987Z,1.30
2023-01-22T06:20:13.513Z,1.30
2023-01-22T06:22:41.049Z,1.30
2023-01-22T06:25:08.687Z,1.30
2023-01-22T06:27:36.989Z,1.20
2023-01-22T06:30:04.522Z,1.20
2023-01-22T06:32:32.107Z,1.20
2023-01-22T06:34:59.639Z,1.20
2023-01-22T06:37:27.192Z,1.20
2023-01-22T06:39:54.716Z,1.20
2023-01-22T06:42:22.254Z,1.20
2023-01-22T06:44:49.811Z,1.20
2023-01-22T06:47:17.383Z,1.10
2023-01-22T06:49:44.918Z,1.20
2023-01-22T06:52:12.456Z,1.20
2023-01-22T06:54:40.053Z,1.10
2023-01-22T06:57:07.585Z,1.20
2023-01-22T06:59:37.065Z,1.20
2023-01-22T07:02:03.749Z,1.20
2023-01-22T07:04:31.187Z,1.20
2023-01-22T07:06:58.736Z,1.20
2023-01-22T07:09:27.057Z,1.20
2023-01-22T07:11:54.605Z,1.20
2023-01-22T07:14:36.180Z,1.30
2023-01-22T07:16:49.706Z,1.30
2023-01-22T07:19:17.250Z,1.30
2023-01-22T07:21:44.781Z,1.30
2023-01-22T07:24:13.412Z,1.30
2023-01-22T07:26:40.947Z,1.30
2023-01-22T07:29:09.264Z,1.20
2023-01-22T07:31:36.918Z,1.20
2023-01-22T07:34:04.382Z,1.20
2023-01-22T07:36:31.907Z,1.20
2023-01-22T07:38:59.484Z,1.30
2023-01-22T07:41:27.007Z,1.30
2023-01-22T07:43:55.317Z,1.30
2023-01-22T07:46:22.905Z,1.30
2023-01-22T07:48:50.428Z,1.30
2023-01-22T07:51:17.985Z,1.30
2023-01-22T07:53:47.540Z,1.40
2023-01-22T07:56:14.975Z,1.40
2023-01-22T07:58:42.516Z,1.30
2023-01-22T08:01:10.187Z,1.30
2023-01-22T08:03:37.616Z,1.30
2023-01-22T08:06:08.117Z,1.30
2023-01-22T08:08:36.446Z,1.30
2023-01-22T08:11:03.969Z,1.30
2023-01-22T08:13:31.552Z,1.30
2023-01-22T08:16:00.394Z,1.40
2023-01-22T08:18:27.868Z,1.40
2023-01-22T08:20:55.418Z,1.40
2023-01-22T08:23:22.960Z,1.40
2023-01-22T08:25:50.520Z,1.40
2023-01-22T08:28:18.042Z,1.40
2023-01-22T08:30:46.948Z,1.50
2023-01-22T08:33:13.180Z,1.70
2023-01-22T08:35:40.714Z,1.70
2023-01-22T08:38:08.269Z,1.70
2023-01-22T08:40:37.926Z,1.70
2023-01-22T08:43:04.118Z,1.70
2023-01-22T08:45:32.862Z,1.70
2023-01-22T08:48:00.265Z,1.70
2023-01-22T08:50:27.802Z,1.70
2023-01-22T08:52:55.402Z,1.90
2023-01-22T08:55:22.920Z,1.90
2023-01-22T08:57:53.147Z,1.90
2023-01-22T09:00:20.809Z,1.90
2023-01-22T09:02:48.360Z,1.80
2023-01-22T09:05:15.886Z,1.80
2023-01-22T09:07:43.453Z,1.90
2023-01-22T09:10:11.814Z,1.80
2023-01-22T09:12:42.135Z,1.80
2023-01-22T09:15:09.749Z,1.80
2023-01-22T09:17:37.285Z,1.90
2023-01-22T09:20:04.908Z,2.10
2023-01-22T09:22:32.523Z,2.10
2023-01-22T09:25:00.116Z,2.10
2023-01-22T09:27:27.640Z,2.00
2023-01-22T09:29:55.961Z,2.00
2023-01-22T09:32:23.502Z,2.00
2023-01-22T09:34:51.044Z,2.00
2023-01-22T09:37:18.610Z,1.90
2023-01-22T09:39:46.157Z,1.90
2023-01-22T09:42:13.691Z,1.90
2023-01-22T09:44:42.049Z,1.90
2023-01-22T09:47:19.371Z,1.90
2023-01-22T09:50:01.942Z,1.90
2023-01-22T09:52:29.517Z,1.90
2023-01-22T09:54:57.043Z,2.00
2023-01-22T09:57:31.743Z,2.10
2023-01-22T09:59:52.134Z,2.20
2023-01-22T10:02:28.584Z,2.20
2023-01-22T10:04:59.144Z,2.20
2023-01-22T10:07:29.144Z,2.20
2023-01-22T10:09:56.670Z,2.30
2023-01-22T10:12:25.885Z,2.60
2023-01-22T10:14:53.413Z,2.60
2023-01-22T10:17:20.965Z,2.50
2023-01-22T10:19:48.521Z,2.50
2023-01-22T10:22:21.945Z,2.60
2023-01-22T10:24:49.491Z,2.60
2023-01-22T10:27:17.834Z,2.80
2023-01-22T10:29:45.369Z,2.80
2023-01-22T10:32:24.980Z,2.70
2023-01-22T10:35:01.815Z,2.80
2023-01-22T10:37:29.475Z,2.80
2023-01-22T10:39:56.945Z,2.70
2023-01-22T10:42:24.496Z,2.70
2023-01-22T10:44:52.057Z,2.70
2023-01-22T10:47:19.592Z,2.80
2023-01-22T10:49:47.124Z,2.80
2023-01-22T10:52:35.439Z,2.90
2023-01-22T10:55:02.973Z,3.10
2023-01-22T10:57:30.504Z,3.00
2023-01-22T11:00:07.044Z,2.90
2023-01-22T11:02:34.607Z,2.80
2023-01-22T11:05:08.035Z,2.70
2023-01-22T11:07:35.628Z,2.80
2023-01-22T11:10:18.426Z,2.80
2023-01-22T11:12:54.431Z,2.70
2023-01-22T11:15:28.229Z,2.60
2023-01-22T11:17:55.744Z,2.60
2023-01-22T11:20:40.953Z,2.50
2023-01-22T11:23:11.147Z,2.50
2023-01-22T11:25:38.671Z,2.50
2023-01-22T11:28:17.784Z,2.40
2023-01-22T11:30:51.580Z,2.40
2023-01-22T11:33:25.359Z,2.40
2023-01-22T11:36:11.487Z,2.40
2023-01-22T11:38:54.137Z,2.40
2023-01-22T11:41:36.622Z,2.60
2023-01-22T11:44:10.255Z,2.60
2023-01-22T11:46:40.729Z,2.50
2023-01-22T11:49:23.838Z,2.40
2023-01-22T11:51:57.103Z,2.40
2023-01-22T11:54:52.179Z,2.40
2023-01-22T11:57:25.411Z,2.30
2023-01-22T12:00:07.729Z,2.30
2023-01-22T12:02:35.300Z,2.30
2023-01-22T12:05:20.835Z,2.30
2023-01-22T12:08:24.808Z,2.40
2023-01-22T12:10:58.254Z,2.40
2023-01-22T12:13:28.235Z,2.40
2023-01-22T12:16:17.436Z,2.30
2023-01-22T12:18:53.925Z,2.30
2023-01-22T12:21:24.151Z,2.30
2023-01-22T12:23:51.695Z,2.20
2023-01-22T12:26:21.929Z,2.40
2023-01-22T12:28:49.533Z,2.70
2023-01-22T12:31:31.788Z,2.90
2023-01-22T12:33:59.313Z,3.10
2023-01-22T12:36:26.863Z,3.20
2023-01-22T12:38:54.392Z,3.10
2023-01-22T12:41:37.752Z,2.80
2023-01-22T12:44:17.671Z,2.80
2023-01-22T12:47:12.601Z,2.70
2023-01-22T12:49:46.223Z,2.60
2023-01-22T12:52:29.129Z,2.60
2023-01-22T12:54:56.672Z,2.50
2023-01-22T12:57:24.211Z,2.50
2023-01-22T12:59:52.540Z,2.40
2023-01-22T13:02:31.800Z,2.40
2023-01-22T13:04:59.718Z,2.40
2023-01-22T13:07:30.086Z,2.40
2023-01-22T13:10:22.596Z,2.30
2023-01-22T13:12:50.151Z,2.30
2023-01-22T13:15:30.007Z,2.40
2023-01-22T13:18:07.638Z,2.40
2023-01-22T13:20:31.078Z,2.40
2023-01-22T13:22:58.652Z,2.30
2023-01-22T13:25:26.195Z,2.30
2023-01-22T13:27:53.716Z,2.50
2023-01-22T13:30:24.066Z,2.40
2023-01-22T13:32:51.580Z,2.40
2023-01-22T13:35:20.152Z,2.30
2023-01-22T13:37:47.456Z,2.30
2023-01-22T13:40:21.314Z,2.20
2023-01-22T13:42:48.707Z,2.20
2023-01-22T13:45:16.292Z,2.20
2023-01-22T13:47:43.806Z,2.20
2023-01-22T13:50:20.695Z,2.20
2023-01-22T13:52:47.851Z,2.20
2023-01-22T13:55:15.377Z,2.20
2023-01-22T13:57:48.398Z,2.20
2023-01-22T14:00:28.044Z,2.20
2023-01-22T14:02:55.799Z,2.20
2023-01-22T14:05:23.412Z,2.20
2023-01-22T14:07:51.351Z,2.20
2023-01-22T14:10:24.700Z,2.20
2023-01-22T14:13:04.901Z,2.20
2023-01-22T14:15:34.726Z,2.20
2023-01-22T14:18:14.107Z,2.20
2023-01-22T14:20:45.367Z,2.20
2023-01-22T14:23:13.653Z,2.30
2023-01-22T14:25:46.765Z,2.20
2023-01-22T14:28:14.340Z,2.30
2023-01-22T14:30:41.918Z,2.20
2023-01-22T14:33:15.226Z,2.20
2023-01-22T14:35:43.572Z,2.40
2023-01-22T14:38:11.090Z,2.40
2023-01-22T14:40:38.591Z,2.30
2023-01-22T14:43:06.167Z,2.30
2023-01-22T14:45:34.474Z,2.30
2023-01-22T14:48:02.755Z,2.20
2023-01-22T14:50:30.329Z,2.20
2023-01-22T14:52:57.924Z,2.20
2023-01-22T14:55:25.460Z,2.20
2023-01-22T14:57:53.036Z,2.20
2023-01-22T15:00:20.939Z,2.20
2023-01-22T15:02:48.938Z,2.30
2023-01-22T15:05:16.504Z,2.30
2023-01-22T15:07:44.036Z,2.30
2023-01-22T15:10:12.382Z,2.20
2023-01-22T15:12:39.957Z,2.20
2023-01-22T15:15:08.336Z,2.20
2023-01-22T15:17:36.647Z,2.10
2023-01-22T15:20:04.233Z,2.10
2023-01-22T15:22:31.763Z,2.10
2023-01-22T15:24:59.307Z,2.10
2023-01-22T15:27:26.883Z,2.10
2023-01-22T15:29:54.412Z,2.00
2023-01-22T15:32:22.700Z,2.00
2023-01-22T15:34:50.289Z,2.00
2023-01-22T15:37:17.820Z,2.00
2023-01-22T15:39:46.127Z,2.10
2023-01-22T15:42:13.723Z,2.10
2023-01-22T15:44:41.269Z,2.10
2023-01-22T15:47:08.793Z,2.00
2023-01-22T15:49:36.372Z,2.10
2023-01-22T15:52:03.904Z,2.10
2023-01-22T15:54:31.438Z,2.10
2023-01-22T15:56:59.786Z,1.90
2023-01-22T15:59:27.316Z,1.90
2023-01-22T16:01:54.871Z,1.90
2023-01-22T16:04:22.443Z,1.90
2023-01-22T16:06:49.978Z,2.00
2023-01-22T16:09:17.513Z,2.00
2023-01-22T16:11:45.865Z,1.90
2023-01-22T16:14:13.389Z,1.90
2023-01-22T16:16:40.953Z,1.80
2023-01-22T16:19:08.501Z,2.00
2023-01-22T16:21:36.038Z,2.00
2023-01-22T16:24:03.556Z,1.90
2023-01-22T16:26:31.146Z,1.80
2023-01-22T16:28:59.449Z,2.00
2023-01-22T16:31:29.859Z,2.00
2023-01-22T16:33:59.870Z,2.00
2023-01-22T16:36:28.170Z,1.90
2023-01-22T16:38:55.699Z,1.90
2023-01-22T16:41:33.049Z,1.80
2023-01-22T16:44:09.075Z,1.80
2023-01-22T16:46:36.625Z,1.80
2023-01-22T16:49:04.208Z,1.70
2023-01-22T16:51:34.464Z,1.70
2023-01-22T16:54:02.021Z,1.70
2023-01-22T16:56:29.600Z,1.70
2023-01-22T16:58:57.889Z,2.10
2023-01-22T17:01:26.193Z,2.10
2023-01-22T17:03:53.764Z,2.10
2023-01-22T17:06:27.307Z,2.00
2023-01-22T17:08:54.849Z,2.00
2023-01-22T17:11:22.433Z,1.90
2023-01-22T17:13:50.722Z,2.10
2023-01-22T17:16:18.246Z,2.10
2023-01-22T17:18:45.831Z,2.00
2023-01-22T17:21:14.139Z,2.00
2023-01-22T17:23:41.665Z,2.00
2023-01-22T17:26:09.989Z,1.90
2023-01-22T17:28:37.515Z,1.90
2023-01-22T17:31:05.173Z,1.90
2023-01-22T17:33:33.377Z,1.90
2023-01-22T17:36:00.920Z,1.90
2023-01-22T17:38:28.444Z,1.90
2023-01-22T17:40:56.788Z,1.90
2023-01-22T17:43:24.306Z,1.90
2023-01-22T17:45:51.870Z,1.90
2023-01-22T17:48:20.178Z,2.00
2023-01-22T17:50:47.760Z,2.00
2023-01-22T17:53:15.274Z,2.00
2023-01-22T17:55:42.860Z,2.20
2023-01-22T17:58:10.415Z,2.20
2023-01-22T18:00:37.955Z,2.10
2023-01-22T18:03:05.519Z,2.10
2023-01-22T18:05:33.056Z,2.00
2023-01-22T18:08:00.574Z,2.00
2023-01-22T18:10:28.157Z,2.00
2023-01-22T18:12:58.711Z,2.00
2023-01-22T18:15:26.227Z,2.00
2023-01-22T18:17:54.589Z,2.00
2023-01-22T18:20:23.550Z,2.00
2023-01-22T18:22:49.623Z,2.00
2023-01-22T18:25:17.376Z,2.00
2023-01-22T18:27:45.489Z,2.00
2023-01-22T18:30:13.010Z,2.00
2023-01-22T18:32:40.566Z,2.00
2023-01-22T18:35:08.305Z,2.10
2023-01-22T18:37:37.513Z,2.10
2023-01-22T18:40:03.425Z,2.10
2023-01-22T18:42:30.970Z,2.30
2023-01-22T18:44:58.512Z,2.30
2023-01-22T18:47:26.099Z,2.60
2023-01-22T18:49:53.623Z,2.60
2023-01-22T18:52:21.159Z,2.50
2023-01-22T18:54:48.733Z,2.50
2023-01-22T18:57:16.283Z,2.50
2023-01-22T18:59:44.579Z,2.40
2023-01-22T19:02:12.163Z,2.40
2023-01-22T19:04:39.693Z,2.40
2023-01-22T19:07:07.240Z,2.40
2023-01-22T19:09:36.166Z,2.60
2023-01-22T19:12:03.808Z,2.60
2023-01-22T19:14:31.225Z,2.60
2023-01-22T19:16:58.808Z,2.60
2023-01-22T19:19:27.103Z,2.50
2023-01-22T19:21:54.645Z,2.50
2023-01-22T19:24:22.985Z,2.40
2023-01-22T19:26:51.524Z,2.40
2023-01-22T19:29:18.064Z,2.40
2023-01-22T19:31:48.402Z,2.40
2023-01-22T19:34:15.864Z,2.40
2023-01-22T19:36:43.417Z,2.40
2023-01-22T19:39:11.389Z,2.40
2023-01-22T19:41:38.902Z,2.60
2023-01-22T19:44:07.206Z,2.60
2023-01-22T19:46:34.846Z,2.60
2023-01-22T19:49:02.303Z,2.60
2023-01-22T19:51:29.869Z,2.60
2023-01-22T19:54:00.614Z,2.50
2023-01-22T19:56:30.942Z,2.50
2023-01-22T19:58:58.500Z,2.50
2023-01-22T20:01:26.595Z,2.50
2023-01-22T20:03:54.130Z,2.50
2023-01-22T20:06:21.653Z,2.50
2023-01-22T20:08:50.011Z,2.50
2023-01-22T20:11:17.540Z,2.50
2023-01-22T20:13:45.075Z,2.50
2023-01-22T20:16:21.501Z,2.70
2023-01-22T20:18:49.028Z,2.70
2023-01-22T20:21:16.546Z,2.70
2023-01-22T20:23:45.165Z,2.60
2023-01-22T20:26:12.665Z,2.60
2023-01-22T20:28:40.204Z,2.60
2023-01-22T20:31:07.854Z,2.50
2023-01-22T20:33:35.319Z,2.50
2023-01-22T20:36:02.837Z,2.50
2023-01-22T20:38:30.703Z,2.40
2023-01-22T20:41:03.659Z,2.40
2023-01-22T20:43:31.201Z,2.40
2023-01-22T20:45:58.876Z,2.40
2023-01-22T20:48:27.098Z,2.30
2023-01-22T20:50:54.657Z,2.30
2023-01-22T20:53:22.217Z,2.30
2023-01-22T20:55:49.748Z,2.30
2023-01-22T20:58:17.336Z,2.30
2023-01-22T21:00:44.946Z,2.30
2023-01-22T21:03:12.448Z,2.30
2023-01-22T21:05:39.978Z,2.30
2023-01-22T21:08:08.827Z,2.30
2023-01-22T21:10:36.385Z,2.30
2023-01-22T21:13:03.905Z,2.30
2023-01-22T21:15:31.488Z,2.30
2023-01-22T21:17:59.051Z,2.30
2023-01-22T21:20:26.588Z,2.30
2023-01-22T21:22:55.034Z,2.50
2023-01-22T21:25:23.396Z,2.50
2023-01-22T21:27:51.262Z,2.50
2023-01-22T21:30:18.772Z,2.50
2023-01-22T21:32:46.019Z,2.50
2023-01-22T21:35:13.545Z,2.40
2023-01-22T21:37:41.905Z,2.40
2023-01-22T21:40:09.767Z,2.30
2023-01-22T21:42:55.122Z,2.30
2023-01-22T21:45:40.971Z,2.50
2023-01-22T21:48:08.526Z,2.50
2023-01-22T21:50:42.813Z,2.70
2023-01-22T21:53:10.363Z,2.70
2023-01-22T21:55:37.943Z,2.70
2023-01-22T21:58:08.709Z,2.80
2023-01-22T22:00:33.778Z,2.80
2023-01-22T22:03:01.700Z,2.80
2023-01-22T22:05:29.228Z,2.80
2023-01-22T22:07:57.528Z,2.60
2023-01-22T22:10:25.131Z,2.70
2023-01-22T22:12:52.645Z,2.60
2023-01-22T22:15:20.193Z,2.60
2023-01-22T22:17:47.760Z,2.80
2023-01-22T22:20:15.293Z,2.80
2023-01-22T22:22:43.604Z,2.70
2023-01-22T22:25:11.181Z,2.70
2023-01-22T22:27:38.724Z,2.90
2023-01-22T22:30:06.374Z,2.90
2023-01-22T22:32:33.939Z,2.80
2023-01-22T22:35:01.492Z,2.70
2023-01-22T22:37:29.773Z,2.60
2023-01-22T22:39:57.340Z,2.60
2023-01-22T22:42:24.871Z,2.60
2023-01-22T22:44:52.396Z,2.50
2023-01-22T22:47:20.009Z,2.50
2023-01-22T22:49:47.532Z,2.40
2023-01-22T22:52:15.839Z,2.40
2023-01-22T22:54:43.408Z,2.40
2023-01-22T22:57:10.934Z,2.40
2023-01-22T22:59:39.228Z,2.40
2023-01-22T23:02:06.811Z,2.30
2023-01-22T23:04:34.382Z,2.30
2023-01-22T23:07:01.886Z,2.60
2023-01-22T23:09:30.233Z,2.80
2023-01-22T23:12:00.196Z,2.80
2023-01-22T23:14:27.750Z,2.80
2023-01-22T23:16:56.179Z,2.90
2023-01-22T23:19:24.470Z,2.90
2023-01-22T23:21:54.848Z,2.90
2023-01-22T23:24:22.403Z,2.80
2023-01-22T23:26:49.932Z,2.70
2023-01-22T23:29:18.251Z,2.70
2023-01-22T23:31:46.578Z,2.70
2023-01-22T23:34:13.956Z,2.70
2023-01-22T23:36:41.504Z,2.60
2023-01-22T23:39:10.260Z,2.70
2023-01-22T23:41:37.813Z,2.60
2023-01-22T23:44:05.338Z,2.60
2023-01-22T23:46:32.923Z,2.90
2023-01-22T23:49:00.459Z,2.90
2023-01-22T23:51:27.996Z,2.80
2023-01-22T23:53:57.307Z,2.80
2023-01-22T23:56:24.832Z,2.80
2023-01-22T23:58:55.369Z,2.70
